Latest Weather Observations for Darwin

IDD60801

Issued at 1:35 pm CST Tuesday 2 September 2014 (issued every 30 minutes, with the page automatically refreshed every 10 minutes)

About weather observations | Map of weather stations | Latest weather observations for NT | Other Formats
Station Details ID: 014015 Name: DARWIN AIRPORT Lat: -12.42 Lon: 130.89 Height: 30.4 m
Data from the previous 72 hours. | See also: Recent months at Darwin
Date/Time
CST
Temp
°C
App
Temp
°C
Dew
Point
Rel
Hum
%
Delta-T
°C
Wind Press
QNH
hPa
Press
MSL
hPa
Rain
since 9 am
mm
Dir
 
Spd
km/h
Gust
km/h
Spd
kts
Gust
kts
02/01:30pm 29.0 27.5 16.7 47 7.7 NNW 20 26 11 14 1013.4 - 0.0
02/01:00pm 28.3 27.2 17.2 51 7.0 NNW 19 26 10 14 1013.7 - 0.0
02/12:30pm 28.9 27.8 17.3 49 7.3 NNW 19 26 10 14 1014.2 - 0.0
02/12:00pm 29.0 27.7 17.3 49 7.4 NNW 20 28 11 15 1014.5 1014.2 0.0
02/11:30am 29.6 28.4 14.0 38 9.4 N 13 22 7 12 1014.8 - 0.0
02/11:00am 29.0 27.9 15.3 43 8.4 NNE 15 20 8 11 1015.4 - 0.0
02/10:30am 28.6 27.8 15.2 44 8.2 NE 13 20 7 11 1015.8 - 0.0
02/10:00am 27.7 26.8 14.8 45 7.8 NE 13 17 7 9 1015.9 - 0.0
02/09:30am 26.8 27.1 17.9 58 5.6 ENE 13 19 7 10 1015.8 - 0.0
02/09:00am 26.2 28.1 18.5 62 4.9 NNE 6 11 3 6 1015.8 1015.5 0.0
02/08:30am 24.7 28.5 20.9 79 2.5 NNE 2 7 1 4 1015.6 - 0.0
02/08:00am 21.5 24.0 19.1 86 1.5 NE 4 6 2 3 1015.4 - 0.0
02/07:30am 19.0 20.8 17.5 91 0.9 N 4 9 2 5 1015.2 - 0.0
02/07:00am 17.7 18.6 16.2 91 0.9 NNE 6 7 3 4 1014.8 - 0.0
02/06:30am 18.3 20.2 16.8 91 0.9 E 2 6 1 3 1014.7 - 0.0
02/06:26am 18.4 19.9 16.7 90 1.0 ENE 4 7 2 4 1014.7 - 0.0
02/06:00am 18.8 20.2 17.3 91 0.9 ENE 6 7 3 4 1014.7 1014.4 0.0
02/05:30am 19.2 20.5 17.6 90 1.0 ENE 7 11 4 6 1014.6 - 0.0
02/05:00am 20.1 21.3 18.2 89 1.2 E 9 9 5 5 1014.6 - 0.0
02/04:30am 19.4 20.5 17.9 91 0.9 E 9 11 5 6 1014.5 - 0.0
02/04:00am 19.4 20.9 18.1 92 0.8 E 7 9 4 5 1014.4 - 0.0
02/03:30am 19.0 20.6 17.9 93 0.7 ENE 6 9 3 5 1014.4 - 0.0
02/03:00am 19.9 21.8 18.5 92 0.9 E 6 11 3 6 1014.3 1014.0 0.0
02/02:30am 20.2 21.6 18.6 90 1.0 ENE 9 9 5 5 1014.5 - 0.0
02/02:00am 20.8 22.8 19.1 90 1.1 ENE 7 9 4 5 1014.6 - 0.0
02/01:30am 21.4 23.2 19.5 89 1.2 ENE 9 13 5 7 1014.7 - 0.0
02/01:00am 22.0 23.2 19.8 87 1.4 NE 13 17 7 9 1014.9 - 0.0
02/12:30am 22.8 24.1 20.2 85 1.7 SSE 13 20 7 11 1014.7 - 0.0
02/12:00am 23.1 23.8 20.5 85 1.7 S 17 20 9 11 1014.2 1013.9 0.0
 
Date/Time
CST
Temp
°C
App
Temp
°C
Dew
Point
Rel
Hum
%
Delta-T
°C
Wind Press
QNH
hPa
Press
MSL
hPa
Rain
since 9 am
mm
Dir
 
Spd
km/h
Gust
km/h
Spd
kts
Gust
kts
01/11:30pm 23.4 24.5 20.5 84 1.9 SSW 15 19 8 10 1014.2 - 0.0
01/11:00pm 23.5 24.2 20.4 83 2.0 SSW 17 20 9 11 1014.1 - 0.0
01/10:30pm 23.7 24.2 20.1 80 2.3 SSW 17 22 9 12 1014.1 - 0.0
01/10:00pm 24.0 24.7 19.6 76 2.8 SSW 15 19 8 10 1014.0 - 0.0
01/09:30pm 24.3 25.3 19.5 74 3.1 SSW 13 17 7 9 1013.8 - 0.0
01/09:00pm 24.4 24.8 18.9 71 3.5 SW 15 19 8 10 1013.4 1013.1 0.0
01/08:30pm 25.3 25.3 17.1 60 5.1 SW 13 17 7 9 1013.1 - 0.0
01/08:00pm 25.6 25.4 16.7 58 5.5 WSW 13 15 7 8 1012.8 - 0.0
01/07:30pm 26.0 25.9 15.9 53 6.2 WSW 11 15 6 8 1012.4 - 0.0
01/07:00pm 25.9 25.8 16.9 57 5.6 W 13 15 7 8 1012.0 - 0.0
01/06:30pm 26.7 25.8 16.9 55 6.1 WNW 17 19 9 10 1011.7 - 0.0
01/06:00pm 27.1 26.5 17.6 56 6.0 W 17 20 9 11 1011.5 1011.2 0.0
01/05:30pm 28.3 26.6 14.6 43 8.3 NW 17 22 9 12 1011.2 - 0.0
01/05:00pm 28.8 26.0 14.2 40 8.8 WNW 22 30 12 16 1011.0 - 0.0
01/04:30pm 29.7 27.7 15.4 42 8.8 NNW 20 26 11 14 1010.8 - 0.0
01/04:00pm 30.6 28.7 15.2 39 9.5 NNW 19 26 10 14 1010.9 - 0.0
01/03:30pm 30.4 28.6 15.5 40 9.2 NNW 19 22 10 12 1011.0 - 0.0
01/03:00pm 29.7 27.9 16.0 43 8.5 NNW 20 26 11 14 1011.4 1011.1 0.0
01/02:30pm 29.2 26.6 16.8 47 7.8 N 26 30 14 16 1011.7 - 0.0
01/02:00pm 29.7 28.5 17.6 48 7.7 NW 20 26 11 14 1012.2 - 0.0
01/01:30pm 29.5 29.0 17.7 49 7.5 WNW 17 24 9 13 1012.7 - 0.0
01/01:00pm 29.1 28.8 18.2 51 7.0 WNW 17 22 9 12 1013.4 - 0.0
01/12:30pm 28.3 28.0 18.3 54 6.4 WNW 17 22 9 12 1013.8 - 0.0
01/12:00pm 28.8 29.2 18.2 52 6.8 NW 13 19 7 10 1014.2 1013.9 0.0
01/11:30am 28.4 29.1 18.0 53 6.6 N 11 17 6 9 1014.7 - 0.0
01/11:09am 28.2 29.0 18.2 54 6.4 N 11 17 6 9 1015.1 - 0.0
01/11:00am 27.8 29.0 18.2 56 6.1 N 9 13 5 7 1015.3 - 0.0
01/10:30am 26.8 27.4 18.5 60 5.3 NNE 13 19 7 10 1015.6 - 0.0
01/10:00am 26.9 27.9 18.6 60 5.3 NNE 11 17 6 9 1015.7 - 0.0
01/09:30am 25.9 26.4 18.3 63 4.8 N 13 17 7 9 1015.6 - 0.0
01/09:00am 25.4 26.6 18.3 65 4.5 ENE 9 11 5 6 1015.9 1015.6 0.0
01/08:30am 24.4 26.1 18.0 67 4.0 E 6 9 3 5 1015.9 - 0.0
01/08:00am 22.1 25.1 18.4 79 2.3 CALM 0 4 0 2 1015.6 - 0.0
01/07:30am 19.6 21.5 18.5 93 0.7 ENE 6 7 3 4 1015.6 - 0.0
01/07:00am 18.9 20.3 17.8 93 0.7 E 7 11 4 6 1015.4 - 0.0
01/06:30am 18.9 19.9 17.8 93 0.7 ENE 9 11 5 6 1015.0 - 0.0
01/06:00am 18.6 19.5 17.5 93 0.7 E 9 9 5 5 1014.6 1014.3 0.0
01/05:30am 18.7 20.1 17.7 94 0.6 ENE 7 9 4 5 1014.4 - 0.0
01/05:26am 18.8 20.2 17.7 93 0.7 ENE 7 9 4 5 1014.4 - 0.0
01/05:00am 18.6 19.5 17.6 94 0.6 ENE 9 11 5 6 1014.3 - 0.0
01/04:30am 18.6 19.7 17.1 91 0.9 ENE 7 9 4 5 1013.8 - 0.0
01/04:00am 19.6 21.3 18.5 93 0.7 E 7 7 4 4 1013.5 - 0.0
01/03:30am 19.8 21.8 18.7 93 0.7 NNE 6 7 3 4 1013.3 - 0.0
01/03:00am 19.9 21.8 18.6 92 0.8 NE 6 7 3 4 1013.4 1013.1 0.0
01/02:56am 19.8 21.5 18.4 92 0.9 NE 7 9 4 5 1013.4 - 0.0
01/02:30am 20.3 22.2 18.9 92 0.9 ENE 7 9 4 5 1013.4 - 0.0
01/02:00am 20.3 22.3 18.7 90 1.0 NE 6 9 3 5 1013.4 - 0.0
01/01:30am 20.4 21.6 18.3 88 1.3 NE 9 9 5 5 1013.7 - 0.0
01/01:00am 20.2 21.4 18.3 89 1.2 E 9 19 5 10 1013.6 - 0.0
01/12:30am 21.3 22.8 18.8 86 1.6 E 9 11 5 6 1013.5 - 0.0
01/12:00am 22.5 23.8 19.2 81 2.1 WSW 11 15 6 8 1013.2 1013.0 0.0
 
Date/Time
CST
Temp
°C
App
Temp
°C
Dew
Point
Rel
Hum
%
Delta-T
°C
Wind Press
QNH
hPa
Press
MSL
hPa
Rain
since 9 am
mm
Dir
 
Spd
km/h
Gust
km/h
Spd
kts
Gust
kts
31/11:30pm 23.3 24.0 18.9 76 2.8 SW 13 17 7 9 1013.0 - 0.0
31/11:00pm 23.3 23.7 18.9 76 2.8 SW 15 19 8 10 1012.9 - 0.0
31/10:30pm 23.5 24.5 18.6 74 3.1 SW 11 15 6 8 1012.9 - 0.0
31/10:00pm 23.7 23.9 18.5 72 3.3 SW 15 19 8 10 1012.9 - 0.0
31/09:30pm 24.0 23.8 18.5 71 3.5 SW 17 19 9 10 1013.0 - 0.0
31/09:00pm 24.4 25.0 18.6 70 3.7 WSW 13 17 7 9 1012.7 1012.5 0.0
31/08:30pm 24.1 24.9 18.1 69 3.8 W 11 13 6 7 1012.4 - 0.0
31/08:00pm 24.8 25.1 18.0 66 4.3 W 13 15 7 8 1012.1 - 0.0
31/07:30pm 24.8 24.3 15.9 57 5.4 W 13 15 7 8 1011.7 - 0.0
31/07:00pm 24.8 25.3 17.4 63 4.6 W 11 13 6 7 1011.3 - 0.0
31/06:30pm 26.0 25.0 15.5 52 6.4 W 15 19 8 10 1011.0 - 0.0
31/06:00pm 27.5 25.9 13.9 43 8.1 NW 15 19 8 10 1010.6 1010.4 0.0
31/05:30pm 28.0 25.6 12.6 38 9.0 NNW 17 20 9 11 1010.3 - 0.0
31/05:00pm 28.0 25.3 12.9 39 8.9 N 19 22 10 12 1010.3 - 0.0
31/04:30pm 29.3 26.5 13.1 37 9.6 NW 20 28 11 15 1010.2 - 0.0
31/04:00pm 29.8 26.2 12.0 33 10.4 NNW 22 28 12 15 1010.2 - 0.0
31/03:30pm 30.3 27.6 11.8 32 10.8 NNW 17 22 9 12 1010.4 - 0.0
31/03:00pm 29.2 25.8 12.5 35 9.8 N 22 26 12 14 1010.6 1010.4 0.0
31/02:30pm 29.8 26.6 13.2 36 9.9 NW 22 30 12 16 1010.9 - 0.0
31/02:00pm 30.0 27.2 14.3 38 9.5 NNW 22 30 12 16 1011.5 - 0.0
31/01:30pm 29.5 27.3 14.9 41 8.9 NW 20 28 11 15 1011.8 - 0.0
31/01:00pm 28.6 26.8 16.0 46 7.8 WNW 20 30 11 16 1012.5 - 0.0
31/12:30pm 30.9 26.6 5.2 19 13.5 WNW 17 24 9 13 1013.0 - 0.0
31/12:00pm 30.8 26.4 6.6 22 13.0 E 19 30 10 16 1013.5 1013.3 0.0
31/11:30am 29.7 25.4 7.0 24 12.2 E 19 30 10 16 1014.1 - 0.0
31/11:00am 29.1 27.5 12.8 36 9.6 NE 13 19 7 10 1014.7 - 0.0
31/10:30am 28.1 25.9 13.2 39 8.8 NE 17 22 9 12 1015.1 - 0.0
31/10:00am 27.6 25.6 12.7 39 8.7 ENE 15 20 8 11 1015.3 - 0.0
31/09:30am 26.6 26.2 17.2 56 5.9 NE 15 19 8 10 1015.3 - 0.0
31/09:00am 25.3 26.0 18.9 67 4.1 NE 13 17 7 9 1015.3 1015.1 0.0
31/08:30am 23.8 26.0 19.6 77 2.7 ENE 7 9 4 5 1015.0 - 0.0
31/08:00am 22.1 23.9 18.8 81 2.1 E 7 11 4 6 1014.7 - 0.0
31/07:30am 18.6 19.4 17.3 92 0.8 E 9 9 5 5 1014.5 - 0.0
31/07:00am 17.9 19.0 16.6 92 0.8 ENE 6 7 3 4 1014.0 - 0.0
31/06:44am 18.1 19.3 16.8 92 0.8 ENE 6 7 3 4 1013.9 - 0.0
31/06:30am 18.3 19.5 16.8 91 0.9 ENE 6 7 3 4 1013.7 - 0.0
31/06:00am 18.0 20.2 16.5 91 0.9 CALM 0 6 0 3 1013.5 1013.3 0.0
31/05:30am 18.1 19.8 16.3 89 1.1 NNE 2 7 1 4 1013.3 - 0.0
31/05:00am 18.4 19.3 16.7 90 1.0 NE 7 9 4 5 1013.1 - 0.0
31/04:30am 18.8 19.4 16.8 88 1.2 NE 9 11 5 6 1013.1 - 0.0
31/04:00am 18.8 18.9 16.5 86 1.4 ENE 11 15 6 8 1013.2 - 0.0
31/03:30am 19.0 18.9 17.0 88 1.2 ENE 13 15 7 8 1013.3 - 0.0
31/03:00am 18.7 20.0 17.6 93 0.7 NE 7 9 4 5 1013.0 1012.8 0.0
31/02:30am 18.7 19.5 17.2 91 0.9 ENE 9 11 5 6 1013.3 - 0.0
31/02:00am 18.6 19.2 16.9 90 1.0 ENE 9 9 5 5 1013.5 - 0.0
31/01:30am 19.1 20.6 17.5 90 1.0 NE 6 7 3 4 1013.4 - 0.0
31/01:00am 19.4 20.8 17.8 90 1.0 NE 7 11 4 6 1013.6 - 0.0
31/12:30am 20.1 21.1 17.8 86 1.4 ENE 9 11 5 6 1013.7 - 0.0
31/12:00am 21.1 21.6 18.4 84 1.7 N 13 22 7 12 1013.8 1013.6 0.0
 
Date/Time
CST
Temp
°C
App
Temp
°C
Dew
Point
Rel
Hum
%
Delta-T
°C
Wind Press
QNH
hPa
Press
MSL
hPa
Rain
since 9 am
mm
Dir
 
Spd
km/h
Gust
km/h
Spd
kts
Gust
kts
30/11:30pm 21.9 23.3 18.7 82 2.0 SSE 9 11 5 6 1013.6 - 0.0
30/11:00pm 21.2 22.8 18.3 83 1.8 S 7 11 4 6 1013.4 - 0.0
30/10:30pm 22.9 23.5 18.6 77 2.7 SSW 13 19 7 10 1013.0 - 0.0
30/10:00pm 23.0 23.4 18.2 74 3.0 S 13 15 7 8 1013.2 - 0.0
30/09:30pm 23.2 22.8 16.1 64 4.3 SSW 13 15 7 8 1013.3 - 0.0
30/09:00pm 24.0 23.5 14.8 56 5.5 SW 11 13 6 7 1013.1 1012.9 0.0
30/08:30pm 23.1 23.0 16.0 64 4.3 WSW 11 13 6 7 1012.8 - 0.0
30/08:00pm 24.1 24.0 15.9 60 5.0 WSW 11 13 6 7 1012.4 - 0.0
30/07:30pm 24.2 24.6 16.2 61 4.9 W 9 11 5 6 1012.1 - 0.0
30/07:00pm 25.4 25.0 15.1 53 6.2 WNW 11 13 6 7 1012.0 - 0.0
30/06:25pm 26.7 25.2 13.1 43 8.0 NNW 13 15 7 8 1011.6 - 0.0
30/06:00pm 27.5 25.4 12.4 39 8.8 NNW 15 19 8 10 1011.3 1011.1 0.0
30/05:30pm 28.0 24.7 11.0 34 9.7 NNW 19 22 10 12 1011.1 - 0.0
30/05:00pm 28.4 24.7 9.6 31 10.5 N 19 24 10 13 1010.9 - 0.0
30/04:30pm 29.0 24.6 10.5 31 10.5 N 24 28 13 15 1010.7 - 0.0
30/04:00pm 29.3 26.0 12.9 36 9.7 N 22 28 12 15 1010.7 - 0.0
30/03:30pm 29.5 26.5 13.6 37 9.5 NNW 22 30 12 16 1010.8 - 0.0
30/03:00pm 29.9 27.1 13.3 36 9.9 N 20 28 11 15 1011.2 1011.0 0.0
30/02:30pm 30.1 27.6 14.0 37 9.7 NW 20 26 11 14 1011.6 - 0.0
30/02:00pm 28.7 26.7 16.5 47 7.6 NW 22 28 12 15 1012.1 - 0.0

Other Formats:

Comma delimited format used in spreadsheet applications
http://www.bom.gov.au/fwo/IDD60801/IDD60801.94120.axf

JavaScript Object Notation format (JSON) in row-major order
http://www.bom.gov.au/fwo/IDD60801/IDD60801.94120.json